createdAt,value
2017-12-03T00:09:46.000Z,35.858
2017-12-03T00:19:46.000Z,36.083
2017-12-03T00:29:46.000Z,35.897
2017-12-03T00:39:46.000Z,35.906
2017-12-03T00:49:46.000Z,35.915
2017-12-03T00:59:46.000Z,35.945
2017-12-03T01:09:46.000Z,36.683
2017-12-03T01:19:46.000Z,37.054
2017-12-03T01:29:46.000Z,35.757
2017-12-03T01:39:46.000Z,35.665
2017-12-03T01:49:46.000Z,35.645
2017-12-03T01:59:46.000Z,35.588
2017-12-03T02:09:46.000Z,35.565
2017-12-03T02:19:46.000Z,35.414
2017-12-03T02:29:46.000Z,35.551
2017-12-03T02:39:46.000Z,35.346
2017-12-03T02:49:46.000Z,35.441
2017-12-03T02:59:46.000Z,35.255
2017-12-03T03:09:46.000Z,35.167
2017-12-03T03:19:46.000Z,35.166
2017-12-03T03:29:46.000Z,35.078
2017-12-03T03:39:46.000Z,35.109
2017-12-03T03:49:46.000Z,35.096
2017-12-03T03:59:46.000Z,35.149
2017-12-03T04:09:46.000Z,35.041
2017-12-03T04:19:46.000Z,35.221
2017-12-03T04:29:46.000Z,35.156
2017-12-03T04:39:46.000Z,35.186
2017-12-03T04:49:46.000Z,35.216
2017-12-03T04:59:46.000Z,35.193
2017-12-03T05:09:46.000Z,35.083
2017-12-03T05:19:46.000Z,34.94
2017-12-03T05:29:46.000Z,35.101
2017-12-03T05:39:46.000Z,35.198
2017-12-03T05:49:46.000Z,35.435
2017-12-03T05:59:46.000Z,35.15
2017-12-03T06:09:46.000Z,34.945
2017-12-03T06:19:46.000Z,34.846
2017-12-03T06:29:46.000Z,34.847
2017-12-03T06:39:46.000Z,34.902
2017-12-03T06:49:46.000Z,34.567
2017-12-03T06:59:47.000Z,34.557
2017-12-03T07:09:48.000Z,34.395
2017-12-03T07:19:47.000Z,34.374
2017-12-03T07:29:47.000Z,34.364
2017-12-03T07:39:47.000Z,34.051
2017-12-03T07:49:47.000Z,34.083
2017-12-03T07:59:47.000Z,33.772
2017-12-03T08:09:47.000Z,33.61
2017-12-03T08:19:47.000Z,33.6
2017-12-03T08:29:47.000Z,33.544
2017-12-03T08:39:47.000Z,33.416
2017-12-03T08:49:47.000Z,33.147
2017-12-03T08:59:47.000Z,33.245
2017-12-03T09:09:47.000Z,32.81
2017-12-03T09:19:47.000Z,31.852
2017-12-03T09:29:47.000Z,31.548
2017-12-03T09:39:47.000Z,31.429
2017-12-03T09:49:47.000Z,31.423
2017-12-03T09:59:47.000Z,30.941
2017-12-03T10:09:47.000Z,30.679
2017-12-03T10:19:47.000Z,34.92
2017-12-03T10:29:47.000Z,35.93
2017-12-03T10:39:47.000Z,37.231
2017-12-03T10:49:47.000Z,36.782
2017-12-03T10:59:47.000Z,35.961
2017-12-03T11:09:47.000Z,35.432
2017-12-03T11:19:47.000Z,34.681
2017-12-03T11:29:47.000Z,34.872
2017-12-03T11:39:47.000Z,35.75
2017-12-03T11:49:47.000Z,36.311
2017-12-03T11:59:47.000Z,35.955
2017-12-03T12:09:47.000Z,35.888
2017-12-03T12:19:47.000Z,35.945
2017-12-03T12:29:47.000Z,35.793
2017-12-03T12:39:47.000Z,35.287
2017-12-03T12:49:47.000Z,35.762
2017-12-03T12:59:47.000Z,35.559
2017-12-03T13:09:47.000Z,35.723
2017-12-03T13:19:47.000Z,36.052
2017-12-03T13:29:47.000Z,35.985
2017-12-03T13:39:47.000Z,36.016
2017-12-03T13:49:47.000Z,35.853
2017-12-03T13:59:48.000Z,35.485
2017-12-03T14:09:47.000Z,35.787
2017-12-03T14:19:47.000Z,35.473
2017-12-03T14:29:47.000Z,35.083
2017-12-03T14:39:47.000Z,35.017
2017-12-03T14:49:48.000Z,35.265
2017-12-03T14:59:47.000Z,35.349
2017-12-03T15:09:48.000Z,34.916
2017-12-03T15:19:48.000Z,35.078
2017-12-03T15:29:48.000Z,34.752
2017-12-03T15:39:48.000Z,34.633
2017-12-03T15:49:48.000Z,34.362
2017-12-03T15:59:48.000Z,34.599
2017-12-03T16:09:48.000Z,34.513
2017-12-03T16:19:48.000Z,33.96
2017-12-03T16:29:48.000Z,33.342
2017-12-03T16:39:48.000Z,34.157
2017-12-03T16:49:48.000Z,33.538
2017-12-03T16:59:48.000Z,33.873
2017-12-03T17:09:48.000Z,34.263
2017-12-03T17:19:48.000Z,34.145
2017-12-03T17:29:48.000Z,34.35
2017-12-03T17:39:48.000Z,34.101
2017-12-03T17:49:48.000Z,34.242
2017-12-03T17:59:48.000Z,33.993
2017-12-03T18:09:48.000Z,34.414
2017-12-03T18:19:48.000Z,33.938
2017-12-03T18:29:48.000Z,34.186
2017-12-03T18:39:48.000Z,34.154
2017-12-03T18:49:48.000Z,34.002
2017-12-03T18:59:49.000Z,34.079
2017-12-03T19:09:48.000Z,34.035
2017-12-03T19:19:48.000Z,33.819
2017-12-03T19:29:48.000Z,33.893
2017-12-03T19:39:48.000Z,33.635
2017-12-03T19:49:48.000Z,34.023
2017-12-03T19:59:48.000Z,33.958
2017-12-03T20:09:48.000Z,33.722
2017-12-03T20:19:48.000Z,33.756
2017-12-03T20:29:48.000Z,34.547
2017-12-03T20:39:49.000Z,34.737
2017-12-03T20:49:48.000Z,34.825
2017-12-03T20:59:48.000Z,34.763
2017-12-03T21:09:48.000Z,34.394
2017-12-03T21:19:48.000Z,32.996
2017-12-03T21:29:48.000Z,33.651
2017-12-03T21:39:48.000Z,33.308
2017-12-03T21:49:48.000Z,33.034
2017-12-03T21:59:48.000Z,32.828
2017-12-03T22:09:48.000Z,32.74
2017-12-03T22:19:48.000Z,32.5
2017-12-03T22:29:48.000Z,32.303
2017-12-03T22:39:49.000Z,32.313
2017-12-03T22:49:48.000Z,32.159
2017-12-03T22:59:48.000Z,32.333
2017-12-03T23:09:48.000Z,32.362
2017-12-03T23:19:48.000Z,32.362
2017-12-03T23:29:48.000Z,32.545
2017-12-03T23:39:49.000Z,32.642
2017-12-03T23:49:49.000Z,32.554
2017-12-03T23:59:49.000Z,32.834
